AirNav   Pilot Hours Calculator
 
 316 users online  

2R5 St Elmo Airport
St Elmo, Alabama, USA

GOING TO ST ELMO?


FAA INFORMATION EFFECTIVE 12 SEPTEMBER 2019

Location

FAA Identifier: 2R5
Lat/Long: 30-30-06.9000N 088-16-30.4000W
30-30.115000N 088-16.506667W
30.5019167,-88.2751111
(estimated)
Elevation: 132.4 ft. / 40.4 m (surveyed)
Variation: 00E (2000)
From city: 2 miles W of ST ELMO, AL
Time zone: UTC -5 (UTC -6 during Standard Time)
Zip code: 36541

Airport Operations

Airport use: Open to the public
Activation date: 03/1945
Control tower: no
ARTCC: HOUSTON CENTER
FSS: ANNISTON FLIGHT SERVICE STATION
NOTAMs facility: ANB (NOTAM-D service available)
Attendance: UNATNDD
Wind indicator: lighted
Segmented circle: yes
Lights: ACTVT MIRL RWY 06/24 - CTAF.
Beacon: white-green (lighted land airport)
Operates sunset to sunrise.

Airport Communications

CTAF: 122.9
MOBILE APPROACH: 121.0
MOBILE DEPARTURE: 121.0
WX ASOS at MOB (11 nm N): PHONE 251-607-0469
WX ASOS at BFM (13 nm NE): PHONE 251-431-6762
WX ASOS at PQL (13 nm W): 135.175 (228-474-2836)
  • APCH/DEP SVC PRVDD BY HOUSTON ARTCC ON FREQS 127.65/285.475 (MOBILE RCAG) WHEN MOBILE APCH CTL CLSD.

Nearby radio navigation aids

VOR radial/distance  VOR name  Freq  Var
BFMr236/13.2BROOKLEY VORTAC112.8004E
SJIr157/14.1SEMMES VORTAC115.3005E
GCVr158/37.4GREENE COUNTY VORTAC115.7005E

 
NDB name  Hdg/Dist  Freq  Var  ID
WISLE176/15.624801WMOB -- --- -...

Airport Services

Fuel available: 100 100LL JET-A+
FUEL 24 HR CREDIT CARD SVC AVBL.
Parking: tiedowns
Airframe service: NONE
Powerplant service: NONE
Bottled oxygen: NONE
Bulk oxygen: NONE

Runway Information

Runway 6/24

Dimensions: 3998 x 80 ft. / 1219 x 24 m
Surface: asphalt, in good condition
Weight bearing capacity: 
Single wheel: 23.0
Runway edge lights: medium intensity
RUNWAY 6  RUNWAY 24
Latitude: 30-29.946905N30-30.282302N
Longitude: 088-16.835212W088-16.179477W
Elevation: 129.3 ft.131.0 ft.
Traffic pattern: leftleft
Runway heading: 059239
Markings: nonprecision, in good conditionnonprecision, in good condition
Touchdown point: yes, no lightsyes, no lights
Obstructions: 57 ft. trees, 1524 ft. from runway, 17 ft. right of centerline, 23:1 slope to clearnone

Airport Ownership and Management from official FAA records

Ownership: Publicly-owned
Owner: STATE OF ALABAMA
1409 COLISEUM BLVD
MONTGOMERY, AL 36130
Phone 334-242-6820
Manager: STATE OF ALABAMA
1409 COLISEUM BLVD
MONTGOMERY, AL 36130
Phone 334-242-6820
ALABAMA DEPARTMENT OF TRANSPORTATION, AERONAUTICS BUREAU.

Airport Operational Statistics

Aircraft based on the field: 32
Single engine airplanes: 25
Jet airplanes: 2
Ultralights: 5
    
Aircraft operations: avg 56/day *
61% transient general aviation
39% local general aviation
* for 12-month period ending 31 May 2019

Additional Remarks

FOR CD CTC HOUSTON ARTCC AT 281-230-5622.

Instrument Procedures

NOTE: All procedures below are presented as PDF files. If you need a reader for these files, you should download the free Adobe Reader.

NOT FOR NAVIGATION. Please procure official charts for flight.
FAA instrument procedures published for use from 12 September 2019 at 0901Z to 10 October 2019 at 0900Z.

 
IAPs - Instrument Approach Procedures
RNAV (GPS) RWY 06   download (194KB)
NOTE: Special Take-Off Minimums/Departure Procedures apply   download (189KB)

Other nearby airports with instrument procedures:

KMOB - Mobile Regional Airport (11 nm N)
KBFM - Mobile Downtown Airport (13 nm NE)
KPQL - Trent Lott International Airport (13 nm W)
KCQF - H L Sonny Callahan Airport (21 nm E)
5R4 - Foley Municipal Airport (30 nm E)
 
Loc | Ops | Rwys | IFR | FBO | Links
Com | Nav | Svcs | Stats | Notes

Continental Motors
AirBoss

 
Area around 2R5 (St Elmo Airport)
 
Road maps at: MapQuest Bing Google
 
Aerial photo
WARNING: Photo may not be current or correct
Aerial photo of 2R5 (St Elmo Airport)
Photo taken 25-Aug-2006

Do you have a better or more recent aerial photo of St Elmo Airport that you would like to share? If so, please send us your photo.

 
Sectional chart

 
Airport distance calculator
Flying to St Elmo Airport? Find the distance to fly.

From to 2R5

Sunrise and sunset
Times for 21-Sep-2019
 Local
(UTC-5)
 Zulu
(UTC)
Morning civil twilight06:1811:18
Sunrise06:4211:42
Sunset18:5123:51
Evening civil twilight19:1500:15

Current date and time
Zulu (UTC)  21-Sep-2019 07:29:14
Local (UTC-5)  21-Sep-2019 02:29:14
 
METAR
KMOB 
11nm N 
210656Z AUTO 05005KT 10SM CLR 22/20 A3014 RMK AO2 SLP204 T02170200
KBFM 
13nm NE 
210653Z AUTO 03006KT 10SM CLR 25/23 A3015 RMK AO2 SLP209 T02500228
KPQL 
14nm W 
210653Z AUTO 00000KT 10SM CLR 20/18 A3013 RMK AO2 SLP203 T02000183
KCQF 
21nm E 
210715Z AUTO 04004KT 10SM CLR 20/19 A3013 RMK AO2
TAF
KMOB 
11nm N 
210520Z 2106/2206 VRB03KT P6SM FEW250 FM211500 12014KT P6SM SCT250
KBFM 
13nm NE 
210520Z 2106/2206 09009KT P6SM FEW250 FM211500 12012KT P6SM SCT250
NOTAMs
Click for the latest NOTAMs
NOTAMs are issued by the DoD/FAA and will open in a separate window not controlled by AirNav.

 

 
 

FBO, Fuel Providers, and Aircraft Ground Support

  
 Business Name 
 
 Contact 
 
 Services / Description 
 
Fuel Prices
 
Comments
  
St. Elmo Airport 334-242-6820
[email]
Airport management, Aviation fuel, Aircraft parking (ramp or tiedown), Hangars, Hangar leasing / sales

More info about St. Elmo Airport
Phillips 66
100LL Jet A
SS $4.31 $3.40 
GUARANTEED
 
   2 read write
SS=Self service
Update Fuel Prices
 

Would you like to see your business listed on this page?

 If your business provides an interesting product or service to pilots, flight crews, aircraft, or users of the St Elmo Airport, you should consider listing it here.  To start the listing process, click on the button below
 
Add a business
 

Other Pages about St Elmo Airport

Update a link
 
Copyright © AirNav, LLC. All rights reserved. Privacy Policy  Contact